Hlavní strana
METAR-TAF:

METAR-TAF

Letiště :

Newark-Heath Airport

Newark, Ohio, Spojené státy americké

zeměpisná šířka: 40-01-22N, zeměpisná délka: 082-27-45W, výška: 269 m

Aktuální stav počasí

Zpráva byla vytvořena před 51 minutami, v 05:54 UTC
Bezvětří
Teplota 3°C
Vlhkost vzduchu 70%
Tlak 1021 hPa
Viditelnost: 16.1 km
Zataženo ve výšce 3300 ft

METAR: KVTA 130554Z AUTO 00000KT 10SM OVC033 03/M02 A3014 RMK AO2 SLP212 60000 T00331022 10044 20033 58012

Čas: 01:45 (06:45 UTC)


TAF: chybějící

Stav a předpovědi počasí z více než 4 000 letišť (zprávy METAR a TAF).

Červené a žluté tečky na mapě představují dostupné meteorologické stanice.

Když kurzor umístíte na tečku, zobrazí se název stanice.

Pak kliknutím zobrazíte stav a předpověď počasí.

Chcete-li změnit mapu, kliknutím na zelené tlačítko se znaménkem +mapu přiblížíte, kliknutím na zelené tlačítko se znaménkem – mapu oddálíte a kliknutím na zelené šipky přejdete na sousední mapy.


METAR-TAF: